createdAt,value
2022-09-03T00:02:22.020Z,99816.63
2022-09-03T00:05:00.167Z,99812.25
2022-09-03T00:07:35.779Z,99808.97
2022-09-03T00:10:30.380Z,99812.75
2022-09-03T00:13:05.258Z,99811.00
2022-09-03T00:15:37.068Z,99816.50
2022-09-03T00:18:20.852Z,99805.41
2022-09-03T00:21:08.860Z,99805.03
2022-09-03T00:23:40.730Z,99813.53
2022-09-03T00:26:11.520Z,99805.72
2022-09-03T00:28:59.970Z,99807.44
2022-09-03T00:31:54.963Z,99796.19
2022-09-03T00:34:45.010Z,99803.47
2022-09-03T00:37:14.477Z,99800.34
2022-09-03T00:39:43.575Z,99796.50
2022-09-03T00:42:21.829Z,99810.22
2022-09-03T00:45:20.207Z,99814.63
2022-09-03T00:48:28.095Z,99815.09
2022-09-03T00:51:18.417Z,99812.66
2022-09-03T00:54:09.569Z,99804.78
2022-09-03T00:57:18.208Z,99807.84
2022-09-03T01:00:10.450Z,99810.22
2022-09-03T01:02:42.459Z,99813.41
2022-09-03T01:05:37.426Z,99803.44
2022-09-03T01:08:32.507Z,99809.34
2022-09-03T01:14:30.740Z,99818.09
2022-09-03T01:16:58.546Z,99810.31
2022-09-03T01:19:29.151Z,99816.22
2022-09-03T01:22:21.232Z,99810.09
2022-09-03T01:24:49.950Z,99809.75
2022-09-03T01:27:37.266Z,99810.38
2022-09-03T01:30:26.071Z,99807.13
2022-09-03T01:33:27.209Z,99807.13
2022-09-03T01:36:02.012Z,99813.28
2022-09-03T01:38:56.954Z,99805.66
2022-09-03T01:42:01.492Z,99811.81
2022-09-03T01:44:45.406Z,99807.56
2022-09-03T01:47:24.811Z,99798.72
2022-09-03T01:49:59.722Z,99795.44
2022-09-03T01:52:48.104Z,99804.19
2022-09-03T01:55:40.884Z,99801.84
2022-09-03T01:58:30.812Z,99797.16
2022-09-03T02:01:04.368Z,99800.28
2022-09-03T02:03:40.749Z,99804.53
2022-09-03T02:06:09.246Z,99800.56
2022-09-03T02:08:42.243Z,99796.78
2022-09-03T02:11:12.202Z,99802.31
2022-09-03T02:14:10.635Z,99801.09
2022-09-03T02:16:38.027Z,99811.16
2022-09-03T02:19:07.660Z,99818.09
2022-09-03T02:21:36.110Z,99812.13
2022-09-03T02:24:06.619Z,99811.28
2022-09-03T02:26:33.716Z,99804.09
2022-09-03T02:29:01.868Z,99803.44
2022-09-03T02:31:29.103Z,99805.81
2022-09-03T02:33:57.490Z,99808.06
2022-09-03T02:36:32.088Z,99797.13
2022-09-03T02:39:16.459Z,99800.44
2022-09-03T02:41:45.397Z,99803.16
2022-09-03T02:44:28.476Z,99806.28
2022-09-03T02:47:11.713Z,99802.66
2022-09-03T02:49:40.846Z,99803.38
2022-09-03T02:52:13.638Z,99802.00
2022-09-03T02:54:48.817Z,99792.00
2022-09-03T02:57:16.808Z,99790.56
2022-09-03T03:00:04.965Z,99792.94
2022-09-03T03:02:34.896Z,99790.00
2022-09-03T03:05:04.974Z,99789.94
2022-09-03T03:07:34.711Z,99804.00
2022-09-03T03:10:01.665Z,99804.81
2022-09-03T03:12:35.654Z,99810.91
2022-09-03T03:15:07.945Z,99815.09
2022-09-03T03:17:43.869Z,99811.34
2022-09-03T03:20:11.879Z,99818.91
2022-09-03T03:22:39.750Z,99815.44
2022-09-03T03:25:06.990Z,99814.44
2022-09-03T03:27:42.600Z,99815.44
2022-09-03T03:30:11.655Z,99822.84
2022-09-03T03:32:46.450Z,99814.59
2022-09-03T03:35:14.037Z,99826.75
2022-09-03T03:37:41.057Z,99820.06
2022-09-03T03:40:09.226Z,99820.72
2022-09-03T03:42:46.196Z,99820.63
2022-09-03T03:45:21.686Z,99817.53
2022-09-03T03:48:12.835Z,99815.75
2022-09-03T03:50:39.699Z,99815.22
2022-09-03T03:53:06.591Z,99809.09
2022-09-03T03:55:42.362Z,99811.47
2022-09-03T03:58:11.671Z,99807.56
2022-09-03T04:00:50.779Z,99817.81
2022-09-03T04:03:20.451Z,99813.94
2022-09-03T04:05:57.128Z,99817.19
2022-09-03T04:08:26.179Z,99812.03
2022-09-03T04:10:56.073Z,99818.06
2022-09-03T04:13:23.048Z,99823.28
2022-09-03T04:15:51.797Z,99807.44
2022-09-03T04:18:24.898Z,99817.19
2022-09-03T04:20:53.040Z,99813.66
2022-09-03T04:23:23.979Z,99813.84
2022-09-03T04:26:03.290Z,99814.94
2022-09-03T04:28:38.080Z,99816.53
2022-09-03T04:31:06.355Z,99810.16
2022-09-03T04:33:40.424Z,99806.66
2022-09-03T04:36:14.775Z,99811.50
2022-09-03T04:38:42.773Z,99812.97
2022-09-03T04:41:26.299Z,99813.13
2022-09-03T04:43:56.104Z,99820.06
2022-09-03T04:46:26.336Z,99826.91
2022-09-03T04:48:54.845Z,99826.50
2022-09-03T04:51:24.559Z,99836.22
2022-09-03T04:53:57.489Z,99834.25
2022-09-03T04:56:27.916Z,99838.34
2022-09-03T04:59:17.357Z,99838.72
2022-09-03T05:01:46.297Z,99837.22
2022-09-03T05:04:13.598Z,99838.63
2022-09-03T05:06:50.628Z,99838.94
2022-09-03T05:09:17.564Z,99838.63
2022-09-03T05:11:48.425Z,99839.00
2022-09-03T05:14:15.383Z,99851.59
2022-09-03T05:16:52.752Z,99851.13
2022-09-03T05:19:20.307Z,99848.03
2022-09-03T05:21:47.325Z,99851.13
2022-09-03T05:24:16.414Z,99851.88
2022-09-03T05:26:52.196Z,99849.94
2022-09-03T05:29:20.476Z,99851.50
2022-09-03T05:31:51.331Z,99851.13
2022-09-03T05:34:18.592Z,99842.56
2022-09-03T05:36:53.341Z,99845.41
2022-09-03T05:39:28.662Z,99840.66
2022-09-03T05:41:57.644Z,99840.25
2022-09-03T05:44:24.802Z,99846.31
2022-09-03T05:46:53.023Z,99851.31
2022-09-03T05:49:28.121Z,99832.00
2022-09-03T05:51:55.119Z,99843.94
2022-09-03T05:54:22.021Z,99845.91
2022-09-03T05:56:50.207Z,99852.41
2022-09-03T05:59:17.476Z,99855.53
2022-09-03T06:01:51.004Z,99856.69
2022-09-03T06:04:19.276Z,99857.25
2022-09-03T06:06:51.181Z,99852.06
2022-09-03T06:09:23.228Z,99850.69
2022-09-03T06:11:52.560Z,99847.59
2022-09-03T06:14:27.142Z,99845.63
2022-09-03T06:16:56.199Z,99845.81
2022-09-03T06:19:25.037Z,99842.38
2022-09-03T06:21:52.024Z,99849.03
2022-09-03T06:24:21.889Z,99848.72
2022-09-03T06:26:58.667Z,99850.94
2022-09-03T06:29:27.984Z,99854.25
2022-09-03T06:31:55.310Z,99853.78
2022-09-03T06:34:32.198Z,99852.34
2022-09-03T06:37:05.150Z,99860.63
2022-09-03T06:39:34.191Z,99860.72
2022-09-03T06:42:01.203Z,99861.97
2022-09-03T06:44:29.156Z,99865.56
2022-09-03T06:46:56.010Z,99866.03
2022-09-03T06:49:29.022Z,99875.88
2022-09-03T06:51:56.184Z,99871.97
2022-09-03T06:54:39.927Z,99878.22
2022-09-03T06:57:19.110Z,99881.63
2022-09-03T06:59:46.327Z,99884.47
2022-09-03T07:02:14.235Z,99878.16
2022-09-03T07:04:41.365Z,99877.25
2022-09-03T07:07:13.545Z,99874.81
2022-09-03T07:09:43.983Z,99872.25
2022-09-03T07:12:16.147Z,99876.19
2022-09-03T07:14:44.089Z,99877.28
2022-09-03T07:17:12.123Z,99873.34
2022-09-03T07:19:40.264Z,99877.78
2022-09-03T07:22:08.283Z,99868.91
2022-09-03T07:24:37.983Z,99868.97
2022-09-03T07:27:09.838Z,99866.28
2022-09-03T07:29:42.450Z,99861.06
2022-09-03T07:32:09.686Z,99870.88
2022-09-03T07:34:40.673Z,99869.53
2022-09-03T07:37:08.030Z,99871.09
2022-09-03T07:39:34.994Z,99871.25
2022-09-03T07:42:11.341Z,99863.25
2022-09-03T07:44:39.234Z,99871.25
2022-09-03T07:47:07.272Z,99870.50
2022-09-03T07:49:35.745Z,99871.81
2022-09-03T07:52:03.353Z,99872.28
2022-09-03T07:54:30.487Z,99870.97
2022-09-03T07:56:57.580Z,99867.88
2022-09-03T07:59:31.881Z,99866.97
2022-09-03T08:02:02.887Z,99878.22
2022-09-03T08:04:30.733Z,99875.16
2022-09-03T08:06:58.163Z,99875.03
2022-09-03T08:09:27.100Z,99875.75
2022-09-03T08:11:57.006Z,99868.44
2022-09-03T08:14:23.923Z,99865.34
2022-09-03T08:16:50.914Z,99863.47
2022-09-03T08:19:19.126Z,99866.59
2022-09-03T08:21:52.011Z,99866.47
2022-09-03T08:24:26.987Z,99865.31
2022-09-03T08:26:55.944Z,99863.16
2022-09-03T08:29:22.821Z,99859.38
2022-09-03T08:31:51.459Z,99870.19
2022-09-03T08:34:18.569Z,99856.44
2022-09-03T08:36:47.481Z,99864.34
2022-09-03T08:39:14.886Z,99857.84
2022-09-03T08:41:49.081Z,99850.59
2022-09-03T08:44:15.859Z,99852.13
2022-09-03T08:46:58.734Z,99849.66
2022-09-03T08:49:47.312Z,99849.09
2022-09-03T08:52:37.769Z,99851.69
2022-09-03T08:55:14.170Z,99860.38
2022-09-03T08:57:45.518Z,99850.63
2022-09-03T09:00:12.584Z,99851.38
2022-09-03T09:02:44.707Z,99850.88
2022-09-03T09:05:19.580Z,99852.59
2022-09-03T09:07:56.213Z,99849.19
2022-09-03T09:10:40.353Z,99843.19
2022-09-03T09:13:24.725Z,99827.16
2022-09-03T09:16:10.538Z,99833.56
2022-09-03T09:18:43.487Z,99833.41
2022-09-03T09:21:21.353Z,99831.44
2022-09-03T09:23:51.174Z,99833.13
2022-09-03T09:26:23.167Z,99827.38
2022-09-03T09:29:03.017Z,99823.03
2022-09-03T09:31:39.697Z,99827.75
2022-09-03T09:34:07.969Z,99829.63
2022-09-03T09:36:45.791Z,99830.47
2022-09-03T09:39:25.095Z,99823.47
2022-09-03T09:42:12.255Z,99823.38
2022-09-03T09:44:40.342Z,99826.25
2022-09-03T09:47:25.253Z,99822.53
2022-09-03T09:50:01.524Z,99811.91
2022-09-03T09:52:30.606Z,99810.41
2022-09-03T09:55:09.551Z,99809.16
2022-09-03T09:57:37.557Z,99814.34
2022-09-03T10:00:13.049Z,99808.41
2022-09-03T10:03:00.279Z,99813.19
2022-09-03T10:05:28.499Z,99812.72
2022-09-03T10:07:56.349Z,99810.31
2022-09-03T10:10:23.776Z,99803.78
2022-09-03T10:12:59.767Z,99802.06
2022-09-03T10:15:29.469Z,99811.66
2022-09-03T10:18:32.105Z,99806.66
2022-09-03T10:21:06.539Z,99807.50
2022-09-03T10:23:44.586Z,99805.72
2022-09-03T10:26:22.171Z,99802.16
2022-09-03T10:28:56.028Z,99798.47
2022-09-03T10:31:36.993Z,99801.56
2022-09-03T10:34:19.047Z,99803.16
2022-09-03T10:37:01.284Z,99795.44
2022-09-03T10:39:52.152Z,99796.06
2022-09-03T10:42:27.301Z,99791.03
2022-09-03T10:45:10.025Z,99792.00
2022-09-03T10:47:42.855Z,99794.16
2022-09-03T10:50:29.288Z,99794.38
2022-09-03T10:53:09.650Z,99795.16
2022-09-03T10:55:58.565Z,99790.66
2022-09-03T10:58:25.570Z,99794.94
2022-09-03T11:01:02.240Z,99782.72
2022-09-03T11:03:46.090Z,99785.88
2022-09-03T11:06:22.840Z,99780.19
2022-09-03T11:09:03.234Z,99785.88
2022-09-03T11:11:53.534Z,99780.00
2022-09-03T11:14:33.213Z,99786.13
2022-09-03T11:17:12.415Z,99780.56
2022-09-03T11:19:49.655Z,99782.84
2022-09-03T11:22:20.762Z,99777.19
2022-09-03T11:24:55.309Z,99782.72
2022-09-03T11:27:22.393Z,99773.66
2022-09-03T11:30:02.295Z,99779.28
2022-09-03T11:32:55.768Z,99780.59
2022-09-03T11:35:26.923Z,99765.72
2022-09-03T11:38:00.571Z,99762.66
2022-09-03T11:40:33.227Z,99760.31
2022-09-03T11:43:16.173Z,99763.94
2022-09-03T11:45:43.574Z,99757.81
2022-09-03T11:48:31.430Z,99767.34
2022-09-03T11:51:04.794Z,99763.66
2022-09-03T11:53:36.618Z,99763.94
2022-09-03T11:56:06.591Z,99760.25
2022-09-03T11:58:35.270Z,99763.34
2022-09-03T12:01:21.015Z,99761.91
2022-09-03T12:03:47.944Z,99764.69
2022-09-03T12:06:21.230Z,99763.19
2022-09-03T12:09:14.067Z,99765.25
2022-09-03T12:11:55.387Z,99767.38
2022-09-03T12:14:22.289Z,99774.53
2022-09-03T12:16:53.577Z,99769.41
2022-09-03T12:19:37.087Z,99768.94
2022-09-03T12:22:17.168Z,99775.81
2022-09-03T12:24:46.484Z,99768.00
2022-09-03T12:27:25.120Z,99775.81
2022-09-03T12:30:06.082Z,99773.13
2022-09-03T12:32:37.489Z,99773.50
2022-09-03T12:38:06.931Z,99779.09
2022-09-03T12:43:45.099Z,99772.47
2022-09-03T12:46:16.174Z,99771.03
2022-09-03T12:52:04.597Z,99772.72
2022-09-03T12:54:33.207Z,99775.19
2022-09-03T12:57:01.628Z,99769.72
2022-09-03T12:59:32.097Z,99770.00
2022-09-03T13:02:02.971Z,99767.22
2022-09-03T13:04:32.876Z,99759.09
2022-09-03T13:07:22.022Z,99754.72
2022-09-03T13:09:52.384Z,99768.56
2022-09-03T13:12:30.198Z,99757.00
2022-09-03T13:14:58.404Z,99747.56
2022-09-03T13:17:51.132Z,99754.19
2022-09-03T13:20:39.793Z,99762.63
2022-09-03T13:23:06.642Z,99751.88
2022-09-03T13:25:53.391Z,99756.22
2022-09-03T13:28:40.944Z,99753.94
2022-09-03T13:31:22.598Z,99758.59
2022-09-03T13:33:57.152Z,99753.44
2022-09-03T13:36:32.242Z,99754.13
2022-09-03T13:39:06.433Z,99750.63
2022-09-03T13:41:44.350Z,99747.75
2022-09-03T13:44:18.818Z,99749.25
2022-09-03T13:46:53.997Z,99744.47
2022-09-03T13:49:59.922Z,99749.44
2022-09-03T13:52:50.665Z,99750.41
2022-09-03T13:55:38.381Z,99748.22
2022-09-03T13:58:27.711Z,99750.69
2022-09-03T14:00:54.793Z,99751.47
2022-09-03T14:03:48.566Z,99740.38
2022-09-03T14:06:20.091Z,99750.19
2022-09-03T14:09:08.847Z,99746.50
2022-09-03T14:11:58.059Z,99756.19
2022-09-03T14:14:35.264Z,99753.09
2022-09-03T14:17:05.143Z,99753.09
2022-09-03T14:19:50.961Z,99745.81
2022-09-03T14:22:21.503Z,99751.13
2022-09-03T14:25:01.503Z,99750.84
2022-09-03T14:27:30.272Z,99750.38
2022-09-03T14:30:11.474Z,99745.19
2022-09-03T14:32:42.501Z,99747.94
2022-09-03T14:35:17.410Z,99749.78
2022-09-03T14:37:59.337Z,99750.19
2022-09-03T14:40:36.205Z,99750.13
2022-09-03T14:43:05.092Z,99754.19
2022-09-03T14:45:51.200Z,99748.66
2022-09-03T14:48:37.791Z,99752.41
2022-09-03T14:51:24.514Z,99750.19
2022-09-03T14:54:13.366Z,99747.13
2022-09-03T14:56:49.534Z,99750.13
2022-09-03T14:59:25.706Z,99742.97
2022-09-03T15:02:08.620Z,99756.50
2022-09-03T15:04:44.602Z,99748.53
2022-09-03T15:07:31.249Z,99752.47
2022-09-03T15:10:13.188Z,99737.53
2022-09-03T15:12:52.165Z,99754.06
2022-09-03T15:15:19.722Z,99750.63
2022-09-03T15:18:11.472Z,99747.69
2022-09-03T15:20:50.859Z,99747.69
2022-09-03T15:23:25.007Z,99750.72
2022-09-03T15:26:11.703Z,99746.84
2022-09-03T15:28:47.621Z,99746.00
2022-09-03T15:31:22.185Z,99744.38
2022-09-03T15:33:54.287Z,99747.31
2022-09-03T15:36:26.734Z,99740.63
2022-09-03T15:38:57.527Z,99739.75
2022-09-03T15:41:34.248Z,99745.13
2022-09-03T15:44:02.271Z,99735.81
2022-09-03T15:46:34.767Z,99741.19
2022-09-03T15:49:20.300Z,99735.31
2022-09-03T15:51:59.700Z,99730.53
2022-09-03T15:55:02.696Z,99731.97
2022-09-03T15:57:36.911Z,99740.13
2022-09-03T16:00:16.647Z,99734.50
2022-09-03T16:02:49.552Z,99738.63
2022-09-03T16:05:19.681Z,99737.97
2022-09-03T16:07:56.563Z,99741.72
2022-09-03T16:10:35.646Z,99743.28
2022-09-03T16:13:05.626Z,99746.97
2022-09-03T16:15:39.501Z,99747.31
2022-09-03T16:18:12.145Z,99747.69
2022-09-03T16:20:42.794Z,99743.13
2022-09-03T16:23:19.033Z,99737.75
2022-09-03T16:25:48.146Z,99738.59
2022-09-03T16:28:21.366Z,99733.59
2022-09-03T16:30:50.946Z,99733.16
2022-09-03T16:33:19.439Z,99732.59
2022-09-03T16:36:15.576Z,99736.28
2022-09-03T16:38:50.076Z,99733.47
2022-09-03T16:41:19.553Z,99730.34
2022-09-03T16:44:04.448Z,99731.47
2022-09-03T16:46:41.290Z,99724.78
2022-09-03T16:49:18.616Z,99728.56
2022-09-03T16:51:46.464Z,99729.06
2022-09-03T16:54:16.352Z,99732.91
2022-09-03T16:56:43.489Z,99731.47
2022-09-03T16:59:25.780Z,99732.09
2022-09-03T17:01:55.521Z,99728.88
2022-09-03T17:04:38.776Z,99732.50
2022-09-03T17:07:12.427Z,99736.56
2022-09-03T17:09:47.341Z,99736.09
2022-09-03T17:12:14.486Z,99733.69
2022-09-03T17:15:25.330Z,99730.38
2022-09-03T17:18:10.778Z,99738.97
2022-09-03T17:20:49.564Z,99736.28
2022-09-03T17:23:32.395Z,99743.63
2022-09-03T17:26:21.081Z,99729.91
2022-09-03T17:29:07.248Z,99738.38
2022-09-03T17:31:49.911Z,99738.63
2022-09-03T17:34:38.886Z,99752.16
2022-09-03T17:37:28.888Z,99751.78
2022-09-03T17:39:59.575Z,99762.31
2022-09-03T17:42:26.501Z,99762.97
2022-09-03T17:45:03.198Z,99761.91
2022-09-03T17:47:55.209Z,99764.25
2022-09-03T17:50:25.594Z,99755.66
2022-09-03T17:53:16.497Z,99759.94
2022-09-03T17:55:53.667Z,99752.09
2022-09-03T17:58:28.415Z,99759.06
2022-09-03T18:01:04.566Z,99757.41
2022-09-03T18:03:40.653Z,99756.66
2022-09-03T18:06:19.374Z,99771.59
2022-09-03T18:08:57.227Z,99768.97
2022-09-03T18:11:25.253Z,99768.41
2022-09-03T18:13:52.153Z,99766.97
2022-09-03T18:16:22.452Z,99770.69
2022-09-03T18:18:52.392Z,99769.75
2022-09-03T18:21:56.853Z,99768.41
2022-09-03T18:24:52.220Z,99772.38
2022-09-03T18:27:41.452Z,99777.72
2022-09-03T18:30:35.333Z,99768.50
2022-09-03T18:33:22.071Z,99772.50
2022-09-03T18:36:07.745Z,99780.13
2022-09-03T18:38:54.524Z,99775.19
2022-09-03T18:41:39.894Z,99782.16
2022-09-03T18:44:37.446Z,99779.88
2022-09-03T18:48:11.834Z,99789.78
2022-09-03T18:51:24.975Z,99790.50
2022-09-03T18:54:25.057Z,99788.78
2022-09-03T18:57:12.938Z,99790.03
2022-09-03T19:00:01.694Z,99787.91
2022-09-03T19:03:10.780Z,99784.25
2022-09-03T19:06:11.905Z,99790.47
2022-09-03T19:09:02.615Z,99789.28
2022-09-03T19:12:06.714Z,99793.84
2022-09-03T19:14:58.443Z,99789.34
2022-09-03T19:17:44.436Z,99789.34
2022-09-03T19:20:46.576Z,99793.44
2022-09-03T19:23:38.933Z,99793.66
2022-09-03T19:26:33.149Z,99791.22
2022-09-03T19:29:31.253Z,99800.00
2022-09-03T19:32:23.935Z,99794.69
2022-09-03T19:35:29.934Z,99800.00
2022-09-03T19:38:29.760Z,99807.75
2022-09-03T19:44:46.595Z,99799.53
2022-09-03T19:47:40.111Z,99798.84
2022-09-03T19:50:43.841Z,99805.50
2022-09-03T19:53:36.576Z,99802.66
2022-09-03T19:56:28.912Z,99789.69
2022-09-03T19:59:15.776Z,99799.94
2022-09-03T20:02:02.480Z,99811.56
2022-09-03T20:04:56.489Z,99816.19
2022-09-03T20:07:42.598Z,99811.13
2022-09-03T20:10:23.576Z,99807.09
2022-09-03T20:13:06.487Z,99804.25
2022-09-03T20:19:13.609Z,99808.72
2022-09-03T20:21:57.877Z,99808.59
2022-09-03T20:24:47.302Z,99810.50
2022-09-03T20:27:32.170Z,99808.25
2022-09-03T20:30:02.622Z,99807.16
2022-09-03T20:32:38.332Z,99814.59
2022-09-03T20:35:11.434Z,99829.66
2022-09-03T20:37:45.427Z,99822.22
2022-09-03T20:40:16.846Z,99821.38
2022-09-03T20:43:03.572Z,99825.22
2022-09-03T20:45:56.459Z,99824.78
2022-09-03T20:48:45.921Z,99824.84
2022-09-03T20:51:23.851Z,99820.41
2022-09-03T20:53:50.668Z,99821.91
2022-09-03T20:56:17.454Z,99819.50
2022-09-03T20:59:06.406Z,99817.69
2022-09-03T21:01:33.942Z,99816.78
2022-09-03T21:04:04.526Z,99819.19
2022-09-03T21:06:50.468Z,99809.41
2022-09-03T21:09:18.260Z,99810.41
2022-09-03T21:12:05.125Z,99821.13
2022-09-03T21:14:33.725Z,99816.91
2022-09-03T21:17:20.226Z,99820.28
2022-09-03T21:19:59.295Z,99822.94
2022-09-03T21:22:34.453Z,99831.81
2022-09-03T21:25:36.734Z,99834.09
2022-09-03T21:28:24.558Z,99831.31
2022-09-03T21:31:27.000Z,99832.63
2022-09-03T21:34:08.610Z,99834.56
2022-09-03T21:36:35.866Z,99842.59
2022-09-03T21:39:24.507Z,99843.47
2022-09-03T21:41:55.650Z,99841.78
2022-09-03T21:45:04.495Z,99840.19
2022-09-03T21:47:39.668Z,99835.66
2022-09-03T21:50:21.608Z,99838.03
2022-09-03T21:53:10.259Z,99835.06
2022-09-03T21:55:56.933Z,99829.75
2022-09-03T21:58:50.170Z,99843.81
2022-09-03T22:01:26.510Z,99836.50
2022-09-03T22:03:54.371Z,99833.75
2022-09-03T22:06:32.098Z,99840.09
2022-09-03T22:09:08.245Z,99838.22
2022-09-03T22:11:50.410Z,99831.63
2022-09-03T22:14:18.187Z,99836.63
2022-09-03T22:16:54.237Z,99832.78
2022-09-03T22:19:23.605Z,99838.53
2022-09-03T22:21:59.313Z,99847.41
2022-09-03T22:24:35.366Z,99846.25
2022-09-03T22:27:08.865Z,99839.19
2022-09-03T22:29:53.319Z,99842.22
2022-09-03T22:32:41.827Z,99842.25
2022-09-03T22:35:14.725Z,99844.69
2022-09-03T22:38:01.032Z,99838.78
2022-09-03T22:41:15.103Z,99840.81
2022-09-03T22:44:00.464Z,99844.09
2022-09-03T22:46:33.626Z,99845.09
2022-09-03T22:49:22.207Z,99841.94
2022-09-03T22:51:55.248Z,99845.81
2022-09-03T22:54:47.962Z,99844.75
2022-09-03T22:57:21.941Z,99841.22
2022-09-03T23:00:03.167Z,99845.53
2022-09-03T23:02:32.081Z,99845.09
2022-09-03T23:05:08.215Z,99845.03
2022-09-03T23:07:54.202Z,99842.09
2022-09-03T23:10:30.014Z,99850.63
2022-09-03T23:13:14.965Z,99848.00
2022-09-03T23:16:00.757Z,99842.88
2022-09-03T23:18:36.449Z,99847.81
2022-09-03T23:21:11.998Z,99835.59
2022-09-03T23:23:42.860Z,99833.44
2022-09-03T23:26:13.871Z,99835.06
2022-09-03T23:28:57.339Z,99820.66
2022-09-03T23:31:26.454Z,99819.72
2022-09-03T23:33:55.227Z,99835.50
2022-09-03T23:36:55.075Z,99827.53
2022-09-03T23:39:23.371Z,99828.03
2022-09-03T23:42:15.267Z,99841.19
2022-09-03T23:45:15.606Z,99830.69
2022-09-03T23:47:47.860Z,99833.03
2022-09-03T23:50:37.761Z,99841.34
2022-09-03T23:53:20.019Z,99830.44
2022-09-03T23:56:02.354Z,99827.84
2022-09-03T23:58:30.331Z,99833.16
